Time;durP1;ratioP1;P1;durP2;ratioP2;P2;SDS_P1;SDS_P2;PMS_P1;PMS_P2;Temp;Humidity;BMP_temperature;BMP_pressure;BME280_temperature;BME280_humidity;BME280_pressure;Samples;Min_cycle;Max_cycle;Signal;HPM_P1;HPM_P2
2021/08/26 00:01:03;;;;;;;;;;;;;;;24.87;48.29;100751.44;5090367;28;1349;-71
2021/08/26 00:06:18;;;;;;;;;;;;;;;24.88;48.57;100760.28;5090972;28;1300;-72
2021/08/26 00:08:47;;;;;;;;;;;;;;;24.84;48.57;100761.47;5090618;28;998;-71
2021/08/26 00:11:16;;;;;;;;;;;;;;;24.81;48.31;100751.94;5072458;28;1378;-71
2021/08/26 00:13:45;;;;;;;;;;;;;;;24.81;48.39;100751.94;5090792;28;1977;-71
2021/08/26 00:16:21;;;;;;;;;;;;;;;24.75;48.58;100748.88;5091180;28;1311;-71
2021/08/26 00:18:48;;;;;;;;;;;;;;;24.75;48.35;100740.91;5090741;28;829;-71
2021/08/26 00:21:15;;;;;;;;;;;;;;;24.78;48.87;100744.16;5091098;28;1236;-72
2021/08/26 00:23:42;;;;;;;;;;;;;;;24.82;48.59;100744.78;5090918;28;862;-71
2021/08/26 00:26:09;;;;;;;;;;;;;;;24.74;48.36;100747.22;5071865;28;1260;-70
2021/08/26 00:28:36;;;;;;;;;;;;;;;24.78;48.82;100746.81;5055407;28;873;-72
2021/08/26 00:31:04;;;;;;;;;;;;;;;24.85;48.49;100757.84;5071935;28;1398;-72
2021/08/26 00:33:31;;;;;;;;;;;;;;;24.81;48.74;100751.09;5090172;28;762;-71
2021/08/26 00:35:58;;;;;;;;;;;;;;;24.74;48.99;100745.41;5090328;28;1918;-71
2021/08/26 00:38:25;;;;;;;;;;;;;;;24.74;48.96;100744.56;5089450;28;766;-71
2021/08/26 00:40:52;;;;;;;;;;;;;;;24.77;49.19;100739.81;5090359;28;1291;-72
2021/08/26 00:43:19;;;;;;;;;;;;;;;24.79;49.18;100739.69;5090054;28;846;-71
2021/08/26 00:45:48;;;;;;;;;;;;;;;24.76;49.14;100737.28;5089747;28;1291;-72
2021/08/26 00:48:15;;;;;;;;;;;;;;;24.77;49.30;100734.50;5089999;28;762;-71
2021/08/26 00:50:41;;;;;;;;;;;;;;;24.85;49.15;100736.53;5071644;28;1463;-71
2021/08/26 00:53:08;;;;;;;;;;;;;;;24.85;49.45;100741.88;5071153;28;1241;-72
2021/08/26 00:55:35;;;;;;;;;;;;;;;24.87;49.34;100729.25;5071476;28;2029;-71
2021/08/26 00:58:02;;;;;;;;;;;;;;;24.84;49.75;100724.19;5071205;28;1226;-72
2021/08/26 01:00:29;;;;;;;;;;;;;;;24.82;49.92;100718.16;5089741;28;1313;-71
2021/08/26 01:02:56;;;;;;;;;;;;;;;24.80;50.11;100712.94;5070423;28;1379;-71
2021/08/26 01:05:29;;;;;;;;;;;;;;;24.81;50.11;100711.13;5089740;28;1286;-71
2021/08/26 01:08:01;;;;;;;;;;;;;;;24.82;50.34;100704.81;5089835;28;782;-71
2021/08/26 01:10:30;;;;;;;;;;;;;;;24.82;50.85;100699.50;5090294;28;1242;-71
2021/08/26 01:12:58;;;;;;;;;;;;;;;24.79;51.12;100699.72;5071354;28;1178;-72
2021/08/26 01:15:27;;;;;;;;;;;;;;;24.76;51.95;100706.16;5089334;28;1985;-71
2021/08/26 01:17:54;;;;;;;;;;;;;;;24.76;52.26;100702.63;5089537;28;1270;-71
2021/08/26 01:20:21;;;;;;;;;;;;;;;24.71;52.69;100707.50;5089258;28;1229;-72
2021/08/26 01:22:48;;;;;;;;;;;;;;;24.68;52.76;100713.09;5089414;28;778;-71
2021/08/26 01:25:16;;;;;;;;;;;;;;;24.68;52.77;100708.63;5070851;28;1365;-73
2021/08/26 01:27:49;;;;;;;;;;;;;;;24.72;52.99;100704.72;5070704;28;1344;-71
2021/08/26 01:30:18;;;;;;;;;;;;;;;24.75;52.97;100719.59;5089388;28;1057;-71
2021/08/26 01:32:47;;;;;;;;;;;;;;;24.63;53.05;100705.47;5070278;28;1274;-72
2021/08/26 01:35:14;;;;;;;;;;;;;;;24.72;53.17;100719.84;5089084;28;1985;-72
2021/08/26 01:37:41;;;;;;;;;;;;;;;24.68;53.02;100713.09;5070622;28;1299;-72
2021/08/26 01:40:09;;;;;;;;;;;;;;;24.70;53.23;100716.47;5088447;28;1021;-71
2021/08/26 01:42:36;;;;;;;;;;;;;;;24.70;53.16;100714.66;5088637;28;1252;-71
2021/08/26 01:45:04;;;;;;;;;;;;;;;24.74;52.89;100717.91;5088768;28;1042;-71
2021/08/26 01:47:31;;;;;;;;;;;;;;;24.69;52.99;100717.44;5088990;28;1252;-71
2021/08/26 01:49:59;;;;;;;;;;;;;;;24.73;52.93;100719.72;5088056;28;1037;-71
2021/08/26 01:52:26;;;;;;;;;;;;;;;24.73;53.72;100716.22;5088342;28;1220;-72
2021/08/26 01:55:03;;;;;;;;;;;;;;;24.70;53.48;100719.13;5088676;28;1913;-71
2021/08/26 01:57:31;;;;;;;;;;;;;;;24.73;53.66;100721.53;5070668;28;1222;-71
2021/08/26 01:59:59;;;;;;;;;;;;;;;24.72;53.31;100715.38;5088225;28;1122;-71
2021/08/26 02:02:26;;;;;;;;;;;;;;;24.74;52.89;100718.75;5088346;28;1317;-71
2021/08/26 02:05:04;;;;;;;;;;;;;;;24.76;53.34;100722.13;5088541;28;1060;-70
2021/08/26 02:07:31;;;;;;;;;;;;;;;24.74;54.02;100723.25;5088296;28;1209;-72
2021/08/26 02:09:58;;;;;;;;;;;;;;;24.76;53.74;100721.28;5088408;28;1048;-71
2021/08/26 02:12:24;;;;;;;;;;;;;;;24.72;53.99;100709.19;5088351;28;1299;-70
2021/08/26 02:14:51;;;;;;;;;;;;;;;24.74;54.14;100718.75;5069340;28;1981;-69
2021/08/26 02:17:18;;;;;;;;;;;;;;;24.71;54.43;100716.34;5070023;28;1240;-71
2021/08/26 02:19:44;;;;;;;;;;;;;;;24.73;55.07;100722.41;5069619;28;1216;-71
2021/08/26 02:22:11;;;;;;;;;;;;;;;24.80;54.74;100717.41;5088291;28;1333;-72
2021/08/26 02:24:38;;;;;;;;;;;;;;;24.76;55.14;100715.97;5053438;28;1364;-71
2021/08/26 02:27:05;;;;;;;;;;;;;;;24.80;55.66;100706.75;5069701;28;1232;-71
2021/08/26 02:29:32;;;;;;;;;;;;;;;24.82;55.64;100710.16;5069733;28;1186;-71
2021/08/26 02:31:58;;;;;;;;;;;;;;;24.77;56.13;100707.84;5087713;28;1319;-70
2021/08/26 02:34:25;;;;;;;;;;;;;;;24.80;56.04;100715.59;5087799;28;1914;-73
2021/08/26 02:36:52;;;;;;;;;;;;;;;24.79;55.94;100705.91;5087782;28;1302;-71
2021/08/26 02:39:20;;;;;;;;;;;;;;;24.79;55.66;100707.72;5069401;28;1246;-70
2021/08/26 02:41:46;;;;;;;;;;;;;;;24.80;55.73;100704.94;5088347;28;1244;-70
2021/08/26 02:44:13;;;;;;;;;;;;;;;24.78;56.24;100704.19;5069147;28;1031;-69
2021/08/26 02:46:40;;;;;;;;;;;;;;;24.77;56.62;100702.53;5069251;28;1438;-70
2021/08/26 02:49:07;;;;;;;;;;;;;;;24.80;56.71;100693.44;5087804;28;1127;-69
2021/08/26 02:51:35;;;;;;;;;;;;;;;24.80;56.96;100696.09;5069545;28;1221;-69
2021/08/26 02:54:02;;;;;;;;;;;;;;;24.85;56.43;100700.09;5069693;28;1401;-70
2021/08/26 02:56:29;;;;;;;;;;;;;;;24.77;56.70;100696.34;5087972;28;1910;-70
2021/08/26 02:58:55;;;;;;;;;;;;;;;24.79;57.01;100689.91;5069224;28;1113;-69
2021/08/26 03:01:22;;;;;;;;;;;;;;;24.85;56.73;100691.25;5088598;28;1326;-69
2021/08/26 03:03:49;;;;;;;;;;;;;;;24.82;56.87;100683.53;5091763;28;782;-69
2021/08/26 03:06:16;;;;;;;;;;;;;;;24.81;57.02;100676.50;5092202;28;1327;-71
2021/08/26 03:08:43;;;;;;;;;;;;;;;24.81;57.03;100672.00;5091789;28;758;-70
2021/08/26 03:11:12;;;;;;;;;;;;;;;24.82;56.99;100670.19;5091692;28;1297;-70
2021/08/26 03:13:39;;;;;;;;;;;;;;;24.85;57.20;100662.81;5091704;28;823;-70
2021/08/26 03:16:06;;;;;;;;;;;;;;;24.82;57.15;100668.38;5091943;28;1902;-70
2021/08/26 03:18:33;;;;;;;;;;;;;;;24.87;57.01;100671.50;5091616;28;774;-70
2021/08/26 03:21:00;;;;;;;;;;;;;;;24.86;57.12;100669.81;5091878;28;1266;-71
2021/08/26 03:23:26;;;;;;;;;;;;;;;24.80;56.97;100659.66;5056569;28;1276;-71
2021/08/26 03:25:53;;;;;;;;;;;;;;;24.75;56.99;100658.31;5091789;28;1224;-70
2021/08/26 03:28:20;;;;;;;;;;;;;;;24.76;56.75;100657.34;5073052;28;1360;-72
2021/08/26 03:30:47;;;;;;;;;;;;;;;24.75;56.68;100666.31;5091537;28;1321;-71
2021/08/26 03:33:15;;;;;;;;;;;;;;;24.75;56.82;100667.16;5072846;28;826;-70
2021/08/26 03:35:41;;;;;;;;;;;;;;;24.79;56.51;100665.94;5091274;28;1979;-71
2021/08/26 03:38:08;;;;;;;;;;;;;;;24.71;57.12;100667.56;5056158;28;1423;-71
2021/08/26 03:40:35;;;;;;;;;;;;;;;24.74;56.94;100670.81;5091138;28;1366;-71
2021/08/26 03:43:02;;;;;;;;;;;;;;;24.75;56.91;100666.31;5091903;28;790;-70
2021/08/26 03:45:28;;;;;;;;;;;;;;;24.75;57.30;100668.97;5073138;28;1262;-71
2021/08/26 03:47:55;;;;;;;;;;;;;;;24.75;57.03;100671.63;5091311;28;1008;-72
2021/08/26 03:50:22;;;;;;;;;;;;;;;24.77;56.98;100677.72;5091000;28;1357;-71
2021/08/26 03:52:49;;;;;;;;;;;;;;;24.74;57.38;100680.63;5090835;28;800;-71
2021/08/26 03:55:15;;;;;;;;;;;;;;;24.77;57.03;100681.22;5090430;28;1910;-71
2021/08/26 03:57:42;;;;;;;;;;;;;;;24.76;57.03;100676.00;5090766;28;1181;-71
2021/08/26 04:00:10;;;;;;;;;;;;;;;24.74;57.18;100673.47;5090321;28;1186;-71
2021/08/26 04:02:37;;;;;;;;;;;;;;;24.72;56.87;100677.22;5072516;28;1256;-72
2021/08/26 04:05:04;;;;;;;;;;;;;;;24.74;57.15;100680.63;5072907;28;1058;-71
2021/08/26 04:07:31;;;;;;;;;;;;;;;24.71;57.00;100684.41;5055834;28;1233;-70
2021/08/26 04:09:59;;;;;;;;;;;;;;;24.72;56.78;100682.53;5073066;28;1161;-71
2021/08/26 04:12:30;;;;;;;;;;;;;;;24.74;56.79;100680.63;5071921;28;1405;-71
2021/08/26 04:14:56;;;;;;;;;;;;;;;24.71;57.04;100680.88;5090745;28;1906;-71
2021/08/26 04:17:23;;;;;;;;;;;;;;;24.61;57.56;100679.94;5090908;28;1248;-72
2021/08/26 04:19:50;;;;;;;;;;;;;;;24.63;57.25;100689.50;5091356;28;1083;-72
2021/08/26 04:22:16;;;;;;;;;;;;;;;24.66;57.17;100685.72;5090659;28;1331;-72
2021/08/26 04:24:43;;;;;;;;;;;;;;;24.60;57.44;100688.88;5090547;28;1083;-71
2021/08/26 04:27:10;;;;;;;;;;;;;;;24.57;57.32;100683.81;5090326;28;1228;-71
2021/08/26 04:29:37;;;;;;;;;;;;;;;24.60;57.36;100679.09;5090748;28;1050;-71
2021/08/26 04:32:04;;;;;;;;;;;;;;;24.61;57.44;100680.78;5055631;28;1253;-72
2021/08/26 04:34:31;;;;;;;;;;;;;;;24.60;57.40;100673.75;5090187;28;1046;-71
2021/08/26 04:36:58;;;;;;;;;;;;;;;24.57;57.42;100675.81;5071433;28;1901;-70
2021/08/26 04:39:25;;;;;;;;;;;;;;;24.60;57.57;100684.41;5090355;28;1570;-70
2021/08/26 04:41:51;;;;;;;;;;;;;;;24.57;57.47;100691.81;5089832;28;1232;-70
2021/08/26 04:44:18;;;;;;;;;;;;;;;24.60;57.19;100688.88;5071519;28;1603;-70
2021/08/26 04:46:45;;;;;;;;;;;;;;;24.58;57.39;100691.69;5089342;28;1331;-70
2021/08/26 04:49:12;;;;;;;;;;;;;;;24.55;57.51;100696.41;5089536;28;1053;-71
2021/08/26 04:51:40;;;;;;;;;;;;;;;24.54;57.51;100700.03;5089913;28;1224;-72
2021/08/26 04:54:06;;;;;;;;;;;;;;;24.59;57.53;100708.53;5071079;28;1646;-71
2021/08/26 04:56:33;;;;;;;;;;;;;;;24.57;57.32;100699.78;5088812;28;1921;-72
2021/08/26 04:59:00;;;;;;;;;;;;;;;24.65;57.25;100705.34;5071575;28;889;-70
2021/08/26 05:01:27;;;;;;;;;;;;;;;24.57;57.52;100699.78;5094319;27;1577;-70
2021/08/26 05:03:54;;;;;;;;;;;;;;;24.56;58.09;100698.13;5090132;28;948;-71
2021/08/26 05:06:21;;;;;;;;;;;;;;;24.52;58.21;100702.00;5091296;28;1335;-71
2021/08/26 05:08:48;;;;;;;;;;;;;;;24.53;58.67;100698.38;5104406;28;1030;-70
2021/08/26 05:11:19;;;;;;;;;;;;;;;24.50;58.80;100699.44;5070958;28;1383;-70
2021/08/26 05:13:47;;;;;;;;;;;;;;;24.52;58.59;100700.19;5092623;28;794;-70
2021/08/26 05:16:13;;;;;;;;;;;;;;;24.57;58.21;100705.13;5109564;28;1905;-71
2021/08/26 05:18:40;;;;;;;;;;;;;;;24.59;57.93;100697.88;5099656;28;821;-72
2021/08/26 05:21:07;;;;;;;;;;;;;;;24.54;58.15;100697.38;5094525;28;1550;-72
2021/08/26 05:23:34;;;;;;;;;;;;;;;24.52;58.37;100702.84;5098079;28;904;-71
2021/08/26 05:26:01;;;;;;;;;;;;;;;24.58;58.41;100710.34;5088678;28;1266;-71
2021/08/26 05:28:28;;;;;;;;;;;;;;;24.61;58.55;100706.56;5088946;28;848;-71
2021/08/26 05:30:55;;;;;;;;;;;;;;;24.51;58.83;100700.28;5070676;28;1338;-71
2021/08/26 05:33:22;;;;;;;;;;;;;;;24.55;58.73;100705.25;5071184;28;787;-72
2021/08/26 05:35:49;;;;;;;;;;;;;;;24.57;58.42;100705.13;5088666;28;1970;-71
2021/08/26 05:38:16;;;;;;;;;;;;;;;24.55;58.74;100699.09;5088690;28;817;-72
2021/08/26 05:40:42;;;;;;;;;;;;;;;24.60;58.73;100703.06;5088949;28;1278;-70
2021/08/26 05:43:09;;;;;;;;;;;;;;;24.54;58.81;100692.91;5053840;28;2121;-70
2021/08/26 05:45:36;;;;;;;;;;;;;;;24.57;58.81;100697.13;5088826;28;1220;-70
2021/08/26 05:48:03;;;;;;;;;;;;;;;24.57;58.96;100694.47;5088940;28;1063;-69
2021/08/26 05:50:29;;;;;;;;;;;;;;;24.62;59.23;100697.63;5089436;28;1312;-70
2021/08/26 05:52:57;;;;;;;;;;;;;;;24.63;59.04;100688.63;5070799;28;1395;-70
2021/08/26 05:55:24;;;;;;;;;;;;;;;24.66;58.95;100699.88;5089103;28;1927;-69
2021/08/26 05:57:50;;;;;;;;;;;;;;;24.68;58.88;100691.78;5070255;28;1579;-69
2021/08/26 06:00:18;;;;;;;;;;;;;;;24.71;58.65;100696.84;5070077;28;1200;-70
2021/08/26 06:02:45;;;;;;;;;;;;;;;24.67;58.38;100695.41;5069976;28;1311;-71
2021/08/26 06:05:12;;;;;;;;;;;;;;;24.65;58.35;100692.03;5091447;28;1399;-72
2021/08/26 06:07:39;;;;;;;;;;;;;;;24.61;58.67;100690.59;5078342;28;1343;-67
2021/08/26 06:10:07;;;;;;;;;;;;;;;24.56;58.49;100687.47;5087670;28;1143;-67
2021/08/26 06:12:37;;;;;;;;;;;;;;;24.59;58.51;100692.53;5087336;28;1389;-69
2021/08/26 06:15:04;;;;;;;;;;;;;;;24.61;58.49;100685.25;5087684;28;1164;-67
2021/08/26 06:17:32;;;;;;;;;;;;;;;24.62;58.36;100694.97;5087791;28;1909;-65
2021/08/26 06:19:59;;;;;;;;;;;;;;;24.63;58.41;100694.81;5069317;28;1236;-73
2021/08/26 06:22:26;;;;;;;;;;;;;;;24.66;58.20;100693.72;5069020;28;1383;-74
2021/08/26 06:24:53;;;;;;;;;;;;;;;24.67;58.43;100698.94;5087516;28;1107;-73
2021/08/26 06:27:20;;;;;;;;;;;;;;;24.65;58.49;100692.03;5053555;28;1344;-71
2021/08/26 06:29:48;;;;;;;;;;;;;;;24.66;58.60;100696.38;5087977;28;1129;-72
2021/08/26 06:32:15;;;;;;;;;;;;;;;24.70;58.13;100696.00;5069729;28;1320;-70
2021/08/26 06:34:41;;;;;;;;;;;;;;;24.73;57.86;100694.91;5087788;28;1027;-70
2021/08/26 06:37:08;;;;;;;;;;;;;;;24.89;57.64;100692.69;5090171;28;1906;-71
2021/08/26 06:39:40;;;;;;;;;;;;;;;25.00;57.71;100693.47;5074181;28;1070;-69
2021/08/26 06:42:06;;;;;;;;;;;;;;;25.07;57.59;100688.50;5092235;28;1314;-69
2021/08/26 06:44:33;;;;;;;;;;;;;;;25.10;57.63;100696.22;5092953;28;1116;-70
2021/08/26 06:47:00;;;;;;;;;;;;;;;25.12;57.70;100696.09;5094314;28;1383;-68
2021/08/26 06:49:27;;;;;;;;;;;;;;;25.13;57.26;100698.63;5091371;28;1068;-69
2021/08/26 06:51:54;;;;;;;;;;;;;;;25.16;57.26;100700.19;5091419;28;1236;-70
2021/08/26 06:54:20;;;;;;;;;;;;;;;25.16;57.56;100698.38;5091253;28;1911;-72
2021/08/26 06:56:47;;;;;;;;;;;;;;;25.31;57.16;100699.75;5072737;28;1985;-73
2021/08/26 06:59:14;;;;;;;;;;;;;;;25.32;56.74;100704.06;5091298;28;1139;-66
2021/08/26 07:01:40;;;;;;;;;;;;;;;25.28;57.36;100702.66;5072036;28;1349;-74
2021/08/26 07:04:08;;;;;;;;;;;;;;;25.23;57.52;100710.19;5056265;28;1194;-71
2021/08/26 07:06:35;;;;;;;;;;;;;;;25.22;57.71;100711.19;5102767;27;1558;-74
2021/08/26 07:09:01;;;;;;;;;;;;;;;25.22;57.53;100708.53;5090886;28;1155;-71
2021/08/26 07:11:29;;;;;;;;;;;;;;;25.22;57.73;100708.53;5090619;28;1228;-74
2021/08/26 07:13:56;;;;;;;;;;;;;;;25.24;57.61;100711.88;5072208;28;1253;-72
2021/08/26 07:16:23;;;;;;;;;;;;;;;25.24;57.74;100711.88;5090838;28;1910;-73
2021/08/26 07:18:50;;;;;;;;;;;;;;;25.25;57.41;100715.41;5091138;28;1157;-73
2021/08/26 07:21:16;;;;;;;;;;;;;;;25.25;57.75;100713.59;5071979;28;1264;-73
2021/08/26 07:23:43;;;;;;;;;;;;;;;25.26;57.51;100704.59;5090507;28;716;-71
2021/08/26 07:26:10;;;;;;;;;;;;;;;25.26;57.80;100704.59;5072484;28;1233;-71
2021/08/26 07:28:37;;;;;;;;;;;;;;;25.33;57.32;100694.25;5090739;28;778;-71
2021/08/26 07:31:03;;;;;;;;;;;;;;;25.34;56.85;100695.97;5090795;28;1251;-70
2021/08/26 07:33:30;;;;;;;;;;;;;;;25.20;56.89;100699.78;5090321;28;1039;-70
2021/08/26 07:35:59;;;;;;;;;;;;;;;25.20;56.83;100699.78;5090740;28;1903;-73
2021/08/26 07:38:26;;;;;;;;;;;;;;;25.20;56.28;100699.78;5072392;28;1187;-74
2021/08/26 07:40:53;;;;;;;;;;;;;;;25.28;56.35;100700.00;5090917;28;1370;-75
2021/08/26 07:43:25;;;;;;;;;;;;;;;25.19;56.45;100698.13;5098763;28;1237;-75
2021/08/26 07:45:52;;;;;;;;;;;;;;;25.22;56.06;100697.00;5091279;28;1382;-76
2021/08/26 07:48:19;;;;;;;;;;;;;;;25.22;56.20;100697.84;5090343;28;1291;-74
2021/08/26 07:50:48;;;;;;;;;;;;;;;25.23;56.32;100698.72;5108060;28;1446;-73
2021/08/26 07:53:15;;;;;;;;;;;;;;;25.24;55.95;100695.03;5109404;28;1228;-72
2021/08/26 07:55:42;;;;;;;;;;;;;;;25.25;56.31;100702.94;5107725;28;1902;-73
2021/08/26 07:58:08;;;;;;;;;;;;;;;25.25;56.30;100702.94;5090231;28;1654;-73
2021/08/26 08:00:35;;;;;;;;;;;;;;;25.28;56.19;100702.66;5091032;28;1275;-70
2021/08/26 08:03:03;;;;;;;;;;;;;;;25.30;55.88;100710.53;5108816;28;1216;-68
2021/08/26 08:05:30;;;;;;;;;;;;;;;25.32;55.94;100706.75;5088891;28;1378;-68
2021/08/26 08:07:57;;;;;;;;;;;;;;;25.36;56.33;100713.50;5090630;28;1296;-64
2021/08/26 08:10:24;;;;;;;;;;;;;;;25.36;56.42;100710.00;5106129;28;1288;-65
2021/08/26 08:12:51;;;;;;;;;;;;;;;25.34;56.32;100710.16;5108669;28;1228;-64
2021/08/26 08:15:18;;;;;;;;;;;;;;;25.36;56.25;100707.31;5109027;28;1613;-70
2021/08/26 08:17:44;;;;;;;;;;;;;;;25.37;56.23;100703.69;5105833;28;1893;-70
2021/08/26 08:20:11;;;;;;;;;;;;;;;25.51;56.40;100709.56;5108861;28;1224;-66
2021/08/26 08:22:38;;;;;;;;;;;;;;;25.45;56.45;100712.72;5105642;28;1657;-67
2021/08/26 08:25:06;;;;;;;;;;;;;;;25.46;56.22;100713.56;5071782;28;1269;-66
2021/08/26 08:27:33;;;;;;;;;;;;;;;25.47;57.17;100715.28;5107080;28;1337;-69
2021/08/26 08:29:59;;;;;;;;;;;;;;;25.48;56.68;100720.50;5107268;28;1221;-66
2021/08/26 08:32:27;;;;;;;;;;;;;;;25.51;57.12;100722.06;5107518;28;1247;-68
2021/08/26 08:34:58;;;;;;;;;;;;;;;25.50;56.96;100718.53;5107159;28;1196;-69
2021/08/26 08:37:25;;;;;;;;;;;;;;;25.64;57.42;100736.03;5086018;28;2001;-65
2021/08/26 08:39:51;;;;;;;;;;;;;;;25.59;57.30;100724.94;5088139;28;1326;-63
2021/08/26 08:42:22;;;;;;;;;;;;;;;25.54;56.54;100727.13;5087070;28;1382;-65
2021/08/26 08:44:50;;;;;;;;;;;;;;;25.58;56.64;100727.72;5104413;28;1233;-65
2021/08/26 08:47:18;;;;;;;;;;;;;;;25.59;56.75;100722.25;5088405;28;1393;-68
2021/08/26 08:49:50;;;;;;;;;;;;;;;25.61;57.22;100735.44;5106824;28;1433;-69
2021/08/26 08:52:17;;;;;;;;;;;;;;;25.65;56.91;100732.41;5106747;28;1389;-65
2021/08/26 08:54:44;;;;;;;;;;;;;;;25.71;56.76;100726.53;5104636;27;1579;-63
2021/08/26 08:57:12;;;;;;;;;;;;;;;25.77;56.60;100735.81;5106721;28;1914;-63
2021/08/26 08:59:39;;;;;;;;;;;;;;;25.82;56.52;100725.59;5106484;28;1236;-62
2021/08/26 09:02:05;;;;;;;;;;;;;;;25.80;56.17;100730.22;5105230;28;1366;-70
2021/08/26 09:04:32;;;;;;;;;;;;;;;25.71;56.55;100726.53;5105474;28;1279;-63
2021/08/26 09:07:01;;;;;;;;;;;;;;;25.75;56.57;100727.09;5106930;28;1294;-65
2021/08/26 09:09:28;;;;;;;;;;;;;;;25.71;57.04;100731.88;5088453;28;1315;-66
2021/08/26 09:11:57;;;;;;;;;;;;;;;25.81;56.34;100731.91;5087986;28;1422;-63
2021/08/26 09:14:25;;;;;;;;;;;;;;;25.74;57.12;100725.41;5088541;28;1256;-66
2021/08/26 09:17:15;;;;;;;;;;;;;;;25.82;56.39;100717.59;5088521;28;1918;-66
2021/08/26 09:20:07;;;;;;;;;;;;;;;25.74;56.86;100722.75;5091207;28;1327;-64
2021/08/26 09:22:38;;;;;;;;;;;;;;;25.90;56.15;100728.44;5102831;28;1296;-68
2021/08/26 09:25:27;;;;;;;;;;;;;;;25.78;56.52;100726.81;5090840;28;1306;-63
2021/08/26 09:27:55;;;;;;;;;;;;;;;25.73;56.58;100719.22;5087618;28;1275;-64
2021/08/26 09:30:42;;;;;;;;;;;;;;;25.72;56.63;100727.34;5103554;28;1283;-69
2021/08/26 09:33:16;;;;;;;;;;;;;;;25.82;56.51;100726.44;5085228;28;1178;-63
2021/08/26 09:35:49;;;;;;;;;;;;;;;25.73;56.46;100721.06;5087136;28;1556;-63
2021/08/26 09:38:24;;;;;;;;;;;;;;;25.70;56.95;100716.84;5086714;28;1981;-63
2021/08/26 09:41:15;;;;;;;;;;;;;;;25.70;56.58;100718.66;5102831;28;1290;-64
2021/08/26 09:44:02;;;;;;;;;;;;;;;25.70;56.88;100721.31;5103941;28;2112;-64
2021/08/26 09:46:37;;;;;;;;;;;;;;;25.74;56.69;100714.75;5085153;28;1231;-64
2021/08/26 09:49:06;;;;;;;;;;;;;;;25.74;56.50;100720.09;5105278;28;1268;-63
2021/08/26 09:51:34;;;;;;;;;;;;;;;25.77;56.99;100719.81;5085135;28;1301;-65
2021/08/26 09:54:24;;;;;;;;;;;;;;;25.81;56.37;100714.06;5106303;28;1335;-65
2021/08/26 09:56:52;;;;;;;;;;;;;;;25.74;56.83;100712.94;5071497;28;1902;-65
2021/08/26 09:59:19;;;;;;;;;;;;;;;25.75;57.29;100713.75;5106922;28;1131;-64
2021/08/26 10:01:46;;;;;;;;;;;;;;;25.71;56.88;100710.53;5106414;28;1240;-65
2021/08/26 10:04:28;;;;;;;;;;;;;;;25.72;57.21;100719.34;5106409;28;1055;-64
2021/08/26 10:06:57;;;;;;;;;;;;;;;25.77;57.10;100722.47;5088693;28;1587;-62
2021/08/26 10:09:38;;;;;;;;;;;;;;;25.78;56.89;100716.16;5106569;28;1174;-64
2021/08/26 10:12:12;;;;;;;;;;;;;;;25.87;56.91;100715.38;5086810;28;1599;-66
2021/08/26 10:14:50;;;;;;;;;;;;;;;25.84;57.21;100718.31;5106335;28;1058;-66
2021/08/26 10:17:18;;;;;;;;;;;;;;;25.84;57.06;100712.97;5071034;28;1909;-66
2021/08/26 10:19:45;;;;;;;;;;;;;;;25.80;57.24;100714.22;5106588;28;898;-65
2021/08/26 10:22:31;;;;;;;;;;;;;;;25.84;57.45;100719.13;5106468;28;1327;-66
2021/08/26 10:24:59;;;;;;;;;;;;;;;25.84;57.06;100724.47;5088118;28;970;-65
2021/08/26 10:27:28;;;;;;;;;;;;;;;25.83;57.21;100719.28;5071394;28;1484;-64
2021/08/26 10:29:55;;;;;;;;;;;;;;;25.78;57.21;100719.66;5106283;28;1200;-64
2021/08/26 10:32:24;;;;;;;;;;;;;;;25.77;57.40;100715.34;5087470;28;1451;-62
2021/08/26 10:35:12;;;;;;;;;;;;;;;25.76;57.81;100718.97;5087546;28;1519;-63
2021/08/26 10:37:48;;;;;;;;;;;;;;;25.74;57.95;100720.94;5087936;28;1988;-62
2021/08/26 10:40:26;;;;;;;;;;;;;;;25.76;58.08;100718.97;5087708;28;1322;-62
2021/08/26 10:42:54;;;;;;;;;;;;;;;25.75;58.13;100719.94;5087640;28;931;-62
2021/08/26 10:45:43;;;;;;;;;;;;;;;25.78;57.92;100721.47;5087949;28;1402;-62
2021/08/26 10:48:29;;;;;;;;;;;;;;;25.76;58.43;100718.97;5087920;28;1082;-63
2021/08/26 10:51:08;;;;;;;;;;;;;;;25.91;59.43;100724.78;5096744;28;1550;-66
2021/08/26 10:53:47;;;;;;;;;;;;;;;26.06;58.66;100723.44;5063099;28;1333;-63
2021/08/26 10:56:16;;;;;;;;;;;;;;;26.01;58.16;100725.69;5101349;28;1408;-65
2021/08/26 10:58:46;;;;;;;;;;;;;;;25.97;58.91;100711.75;5082583;28;1909;-67
2021/08/26 11:01:30;;;;;;;;;;;;;;;26.03;59.33;100723.72;5088274;28;1287;-65
2021/08/26 11:04:02;;;;;;;;;;;;;;;25.97;59.65;100721.59;5071648;28;1629;-65
2021/08/26 11:06:46;;;;;;;;;;;;;;;25.91;60.14;100717.63;5084674;28;1279;-62
2021/08/26 11:09:14;;;;;;;;;;;;;;;25.90;60.25;100717.78;5066372;28;1069;-64
2021/08/26 11:11:45;;;;;;;;;;;;;;;25.93;59.62;100717.50;5091586;28;1530;-64
2021/08/26 11:14:23;;;;;;;;;;;;;;;25.98;60.50;100707.28;5085636;28;1441;-64
2021/08/26 11:16:53;;;;;;;;;;;;;;;26.03;59.87;100710.38;5085758;28;1973;-61
2021/08/26 11:19:28;;;;;;;;;;;;;;;26.16;60.45;100710.16;5071628;28;1300;-64
2021/08/26 11:21:56;;;;;;;;;;;;;;;26.23;59.82;100711.31;5086940;28;1276;-64
2021/08/26 11:24:23;;;;;;;;;;;;;;;26.19;60.41;100710.75;5090291;28;1165;-69
2021/08/26 11:26:51;;;;;;;;;;;;;;;26.14;60.34;100710.28;5109484;28;1284;-64
2021/08/26 11:29:38;;;;;;;;;;;;;;;26.12;59.96;100709.56;5095313;28;1684;-64
2021/08/26 11:32:07;;;;;;;;;;;;;;;26.11;60.27;100709.69;5090075;28;1238;-64
2021/08/26 11:34:34;;;;;;;;;;;;;;;26.08;61.01;100702.81;5109012;28;1135;-65
2021/08/26 11:37:12;;;;;;;;;;;;;;;26.15;60.17;100703.97;5107610;27;1905;-68
2021/08/26 11:39:41;;;;;;;;;;;;;;;26.16;60.29;100703.00;5107909;28;1169;-67
2021/08/26 11:42:22;;;;;;;;;;;;;;;26.21;61.01;100706.09;5094464;27;1484;-64
2021/08/26 11:45:13;;;;;;;;;;;;;;;26.24;59.82;100700.50;5112652;27;1175;-64
2021/08/26 11:48:01;;;;;;;;;;;;;;;26.19;60.89;100700.06;5100121;28;1315;-67
2021/08/26 11:50:31;;;;;;;;;;;;;;;26.20;61.07;100707.09;5089237;28;1390;-64
2021/08/26 11:53:06;;;;;;;;;;;;;;;26.18;60.65;100713.53;5094518;27;1332;-63
2021/08/26 11:55:38;;;;;;;;;;;;;;;26.19;60.97;100702.72;5091047;28;1344;-63
2021/08/26 11:58:06;;;;;;;;;;;;;;;26.28;60.92;100704.59;5068126;28;1981;-63
2021/08/26 12:00:39;;;;;;;;;;;;;;;26.32;61.02;100710.50;5069939;28;1310;-60
2021/08/26 12:03:08;;;;;;;;;;;;;;;26.22;61.31;100699.78;5070474;28;1572;-61
2021/08/26 12:05:41;;;;;;;;;;;;;;;26.26;61.44;100698.53;5065793;28;1311;-62
2021/08/26 12:08:09;;;;;;;;;;;;;;;26.34;61.22;100697.84;5086730;28;1193;-65
2021/08/26 12:10:43;;;;;;;;;;;;;;;26.35;61.52;100700.38;5069162;28;1503;-65
2021/08/26 12:13:16;;;;;;;;;;;;;;;26.41;61.34;100710.53;5070625;28;1399;-65
2021/08/26 12:15:48;;;;;;;;;;;;;;;26.28;60.70;100693.91;5068830;28;1397;-66
2021/08/26 12:18:21;;;;;;;;;;;;;;;26.21;60.69;100698.09;5085449;28;1971;-66
2021/08/26 12:20:52;;;;;;;;;;;;;;;26.25;60.83;100701.34;5066407;28;1350;-67
2021/08/26 12:23:20;;;;;;;;;;;;;;;26.32;61.67;100711.34;5082228;28;1229;-67
2021/08/26 12:26:03;;;;;;;;;;;;;;;26.36;61.37;100704.72;5067885;28;1276;-66
2021/08/26 12:28:31;;;;;;;;;;;;;;;26.42;61.22;100711.34;5066816;28;1624;-64
2021/08/26 12:30:58;;;;;;;;;;;;;;;26.33;61.51;100707.69;5085593;28;1232;-65
2021/08/26 12:33:25;;;;;;;;;;;;;;;26.33;61.44;100701.47;5066075;28;1244;-65
2021/08/26 12:35:56;;;;;;;;;;;;;;;26.40;61.92;100698.13;5085424;28;1322;-65
2021/08/26 12:38:34;;;;;;;;;;;;;;;26.38;61.75;100700.13;5082305;28;1906;-68
2021/08/26 12:41:02;;;;;;;;;;;;;;;26.45;61.47;100687.03;5082675;28;1318;-66
2021/08/26 12:43:44;;;;;;;;;;;;;;;26.32;61.95;100673.13;5084057;28;1222;-67
2021/08/26 12:46:12;;;;;;;;;;;;;;;26.28;61.05;100685.03;5085402;28;1319;-66
2021/08/26 12:48:42;;;;;;;;;;;;;;;26.20;62.21;100679.56;5084200;28;1158;-67
2021/08/26 12:51:29;;;;;;;;;;;;;;;26.18;61.84;100674.34;5067526;28;1322;-66
2021/08/26 12:53:56;;;;;;;;;;;;;;;26.19;61.97;100673.38;5087421;28;1230;-66
2021/08/26 12:56:25;;;;;;;;;;;;;;;26.41;62.18;100665.13;5104309;28;1283;-67
2021/08/26 12:59:03;;;;;;;;;;;;;;;26.51;62.86;100665.94;5088680;28;1937;-63
2021/08/26 13:01:30;;;;;;;;;;;;;;;26.43;63.28;100665.81;5107323;28;1374;-64